Time;durP1;ratioP1;P1;durP2;ratioP2;P2;SDS_P1;SDS_P2;PMS_P1;PMS_P2;Temp;Humidity;BMP_temperature;BMP_pressure;BME280_temperature;BME280_humidity;BME280_pressure;Samples;Min_cycle;Max_cycle;Signal;HPM_P1;HPM_P2
2022/05/30 00:00:03;;;;;;;4.63;4.33;;;15.00;98.60;;;;;;5049938;28;20425;-65
2022/05/30 00:02:29;;;;;;;4.73;4.43;;;14.90;99.10;;;;;;5050784;28;20426;-65
2022/05/30 00:04:58;;;;;;;4.87;4.57;;;14.90;98.60;;;;;;5050235;28;20437;-65
2022/05/30 00:07:23;;;;;;;4.27;3.90;;;14.90;98.90;;;;;;5052003;28;20181;-65
2022/05/30 00:09:49;;;;;;;4.30;3.90;;;14.90;98.40;;;;;;5050061;28;20497;-65
2022/05/30 00:12:15;;;;;;;5.10;4.00;;;14.90;98.60;;;;;;5051704;28;20520;-65
2022/05/30 00:14:40;;;;;;;4.30;4.10;;;14.80;98.70;;;;;;5050192;28;20190;-69
2022/05/30 00:17:07;;;;;;;4.93;3.80;;;14.80;98.60;;;;;;5054742;28;20214;-65
2022/05/30 00:19:37;;;;;;;4.00;3.70;;;14.80;97.90;;;;;;5055991;28;20174;-65
2022/05/30 00:22:04;;;;;;;6.43;3.93;;;14.80;98.00;;;;;;5054774;28;20470;-65
2022/05/30 00:24:31;;;;;;;4.10;3.70;;;14.80;97.70;;;;;;5054403;28;20447;-65
2022/05/30 00:26:57;;;;;;;5.37;4.00;;;14.80;97.90;;;;;;5055056;28;20412;-65
2022/05/30 00:29:23;;;;;;;4.20;3.80;;;14.80;98.10;;;;;;5055709;28;20434;-65
2022/05/30 00:31:49;;;;;;;4.57;4.17;;;14.80;98.30;;;;;;5054675;28;20186;-65
2022/05/30 00:34:15;;;;;;;4.90;4.20;;;14.80;98.10;;;;;;5037867;28;20424;-65
2022/05/30 00:36:41;;;;;;;4.53;4.20;;;14.80;98.00;;;;;;5055226;28;20410;-70
2022/05/30 00:39:06;;;;;;;4.47;3.90;;;14.90;98.60;;;;;;5054888;28;20656;-65
2022/05/30 00:41:32;;;;;;;4.37;4.00;;;14.90;98.20;;;;;;5055497;28;20693;-65
2022/05/30 00:43:58;;;;;;;4.23;3.73;;;14.90;97.70;;;;;;5054780;28;20627;-65
2022/05/30 00:46:24;;;;;;;5.93;4.13;;;14.80;97.70;;;;;;5053130;28;20587;-65
2022/05/30 00:49:19;;;;;;;4.20;3.57;;;14.90;99.10;;;;;;5052754;28;20444;-65
2022/05/30 00:51:50;;;;;;;5.13;3.87;;;14.80;97.90;;;;;;5048181;28;20776;-65
2022/05/30 00:54:24;;;;;;;7.30;3.50;;;14.80;98.00;;;;;;5053229;28;20440;-65
2022/05/30 00:56:55;;;;;;;4.30;3.87;;;14.70;98.30;;;;;;5054238;28;20546;-65
2022/05/30 00:59:22;;;;;;;3.73;3.53;;;14.80;97.90;;;;;;5054140;28;20471;-65
2022/05/30 01:01:48;;;;;;;4.40;4.00;;;14.80;98.60;;;;;;5053203;28;20460;-65
2022/05/30 01:07:01;;;;;;;3.90;3.60;;;14.70;97.70;;;;;;5054344;28;20456;-65
2022/05/30 01:09:31;;;;;;;6.70;4.10;;;14.80;98.60;;;;;;5053590;28;20425;-65
2022/05/30 01:12:06;;;;;;;6.83;3.77;;;14.70;98.90;;;;;;5053933;28;20415;-65
2022/05/30 01:14:38;;;;;;;5.50;3.90;;;14.70;97.80;;;;;;5053841;28;20412;-66
2022/05/30 01:17:08;;;;;;;4.27;3.87;;;14.70;98.30;;;;;;5033840;28;21134;-65
2022/05/30 01:19:51;;;;;;;7.43;4.10;;;14.70;97.90;;;;;;5034119;28;20761;-65
2022/05/30 01:22:36;;;;;;;13.50;4.30;;;14.70;97.90;;;;;;5034556;28;20470;-65
2022/05/30 01:25:39;;;;;;;8.70;4.53;;;14.70;98.60;;;;;;5034105;28;20675;-65
2022/05/30 01:28:29;;;;;;;4.90;4.00;;;14.70;98.40;;;;;;5033668;28;21030;-65
2022/05/30 01:30:55;;;;;;;6.27;5.07;;;14.60;98.10;;;;;;5033660;28;20953;-65
2022/05/30 01:33:21;;;;;;;4.90;4.47;;;14.60;98.00;;;;;;5034716;28;20500;-65
2022/05/30 01:35:46;;;;;;;4.93;3.83;;;14.60;97.70;;;;;;5032487;28;20440;-70
2022/05/30 01:38:12;;;;;;;5.33;4.83;;;14.60;97.70;;;;;;5034522;28;20267;-65
2022/05/30 01:40:38;;;;;;;7.77;4.50;;;14.60;97.30;;;;;;5034434;28;20191;-65
2022/05/30 01:43:04;;;;;;;4.27;3.87;;;14.60;97.40;;;;;;5038668;28;20429;-65
2022/05/30 01:45:30;;;;;;;4.40;4.03;;;14.60;97.80;;;;;;5054638;28;20174;-65
2022/05/30 01:47:55;;;;;;;7.50;4.37;;;14.60;97.90;;;;;;5052719;28;20442;-65
2022/05/30 01:50:22;;;;;;;5.50;4.93;;;14.60;97.70;;;;;;5054385;28;20187;-65
2022/05/30 01:52:48;;;;;;;4.63;4.23;;;14.60;97.60;;;;;;5053014;28;20182;-66
2022/05/30 01:55:14;;;;;;;5.13;4.10;;;14.60;97.50;;;;;;5054200;28;20396;-65
2022/05/30 01:57:42;;;;;;;4.33;4.03;;;14.60;97.20;;;;;;5054124;28;20241;-65
2022/05/30 02:00:12;;;;;;;4.50;4.10;;;14.60;98.10;;;;;;5051550;28;20629;-65
2022/05/30 02:02:38;;;;;;;4.67;4.27;;;14.60;98.00;;;;;;5051640;28;20447;-65
2022/05/30 02:05:06;;;;;;;5.57;4.57;;;14.60;99.30;;;;;;5052798;28;21245;-65
2022/05/30 02:07:31;;;;;;;4.70;4.30;;;14.60;99.10;;;;;;5054046;28;20197;-65
2022/05/30 02:09:57;;;;;;;5.27;4.83;;;14.60;99.50;;;;;;5053109;28;20515;-65
2022/05/30 02:12:23;;;;;;;5.50;4.40;;;14.60;99.40;;;;;;5051361;28;20599;-65
2022/05/30 02:14:49;;;;;;;4.70;4.27;;;14.50;98.70;;;;;;5053101;28;20174;-69
2022/05/30 02:17:14;;;;;;;4.60;4.20;;;14.50;99.10;;;;;;5053367;28;20539;-65
2022/05/30 02:19:43;;;;;;;6.10;4.03;;;14.50;99.00;;;;;;5053686;28;20210;-65
2022/05/30 02:22:11;;;;;;;5.60;3.53;;;14.50;98.40;;;;;;5053161;28;20221;-65
2022/05/30 02:24:40;;;;;;;5.50;4.43;;;14.50;98.10;;;;;;5053638;28;20819;-65
2022/05/30 02:27:07;;;;;;;4.60;4.20;;;14.40;98.20;;;;;;5052830;28;20496;-65
2022/05/30 02:29:33;;;;;;;4.27;3.97;;;14.40;98.40;;;;;;5052231;28;20417;-65
2022/05/30 02:31:59;;;;;;;5.30;4.37;;;14.40;98.40;;;;;;5052453;28;20841;-65
2022/05/30 02:37:09;;;;;;;4.80;4.40;;;14.50;98.40;;;;;;5051851;28;20254;-66
2022/05/30 02:39:35;;;;;;;5.13;4.60;;;14.40;98.30;;;;;;5052358;28;20432;-65
2022/05/30 02:42:00;;;;;;;4.63;4.23;;;14.40;98.30;;;;;;5052475;28;20606;-66
2022/05/30 02:44:26;;;;;;;5.13;3.93;;;14.40;98.60;;;;;;5052858;28;20178;-65
2022/05/30 02:46:55;;;;;;;4.93;4.00;;;14.40;98.60;;;;;;5050903;28;20224;-65
2022/05/30 02:49:21;;;;;;;5.40;4.37;;;14.40;98.80;;;;;;5052830;28;20518;-65
2022/05/30 02:51:48;;;;;;;4.87;4.23;;;14.40;98.60;;;;;;5052994;28;20941;-69
2022/05/30 02:54:14;;;;;;;4.47;4.17;;;14.40;98.70;;;;;;5052399;28;20506;-65
2022/05/30 02:56:41;;;;;;;7.70;4.60;;;14.40;98.60;;;;;;5052973;28;20947;-65
2022/05/30 02:59:07;;;;;;;5.10;4.67;;;14.40;98.60;;;;;;5051938;28;20483;-65
2022/05/30 03:01:34;;;;;;;5.63;4.33;;;14.40;98.60;;;;;;5052660;28;20819;-65
2022/05/30 03:04:01;;;;;;;8.37;5.40;;;14.40;98.50;;;;;;5050434;28;20435;-65
2022/05/30 03:06:28;;;;;;;5.00;4.60;;;14.40;99.60;;;;;;5052528;28;20415;-65
2022/05/30 03:08:56;;;;;;;4.60;4.20;;;14.40;99.60;;;;;;5052026;28;20431;-65
2022/05/30 03:11:22;;;;;;;4.97;4.00;;;14.40;99.10;;;;;;5052496;28;20443;-65
2022/05/30 03:13:48;;;;;;;5.20;4.23;;;14.40;98.30;;;;;;5052492;28;20494;-67
2022/05/30 03:16:14;;;;;;;4.00;3.70;;;14.50;98.70;;;;;;5051314;28;20952;-65
2022/05/30 03:18:40;;;;;;;6.27;4.47;;;14.40;98.60;;;;;;5052734;28;20217;-65
2022/05/30 03:21:06;;;;;;;4.70;4.30;;;14.40;98.50;;;;;;5051799;28;20300;-65
2022/05/30 03:23:32;;;;;;;6.40;4.70;;;14.40;98.50;;;;;;5049423;28;20534;-65
2022/05/30 03:25:59;;;;;;;4.50;4.10;;;14.40;98.70;;;;;;5049656;28;20197;-65
2022/05/30 03:28:24;;;;;;;5.07;4.53;;;14.40;98.40;;;;;;5047903;28;20970;-65
2022/05/30 03:30:50;;;;;;;7.03;4.90;;;14.40;98.40;;;;;;5049825;28;20443;-69
2022/05/30 03:33:16;;;;;;;4.73;4.33;;;14.40;98.90;;;;;;5051771;28;20203;-65
2022/05/30 03:35:43;;;;;;;5.30;4.27;;;14.40;98.60;;;;;;5052098;28;20416;-65
2022/05/30 03:38:09;;;;;;;5.33;4.10;;;14.40;98.40;;;;;;5049886;28;20463;-65
2022/05/30 03:40:38;;;;;;;4.37;4.00;;;14.40;98.80;;;;;;5052293;28;20449;-65
2022/05/30 03:43:09;;;;;;;5.23;4.33;;;14.40;98.40;;;;;;5051230;28;20904;-65
2022/05/30 03:45:40;;;;;;;5.50;3.87;;;14.40;98.40;;;;;;5036169;28;20420;-65
2022/05/30 03:48:08;;;;;;;8.30;4.30;;;14.40;99.10;;;;;;5051236;28;20515;-65
2022/05/30 03:50:35;;;;;;;8.70;3.90;;;14.40;99.90;;;;;;5047434;28;20436;-66
2022/05/30 03:53:05;;;;;;;6.87;4.53;;;14.40;99.70;;;;;;5051099;28;20430;-65
2022/05/30 03:55:34;;;;;;;5.50;4.83;;;14.40;98.90;;;;;;5051716;28;20469;-65
2022/05/30 03:58:05;;;;;;;5.53;4.47;;;14.40;99.10;;;;;;5051525;28;20888;-67
2022/05/30 04:00:32;;;;;;;6.63;4.20;;;14.40;98.40;;;;;;5051867;28;20787;-67
2022/05/30 04:03:02;;;;;;;5.50;4.53;;;14.40;98.80;;;;;;5048950;28;20432;-68
2022/05/30 04:05:28;;;;;;;5.37;4.30;;;14.40;98.40;;;;;;5051247;28;20469;-67
2022/05/30 04:07:54;;;;;;;5.73;3.97;;;14.40;98.80;;;;;;5051096;28;20419;-73
2022/05/30 04:10:21;;;;;;;5.37;4.87;;;14.40;98.70;;;;;;5050094;28;20419;-71
2022/05/30 04:12:47;;;;;;;6.03;5.40;;;14.40;98.50;;;;;;5050545;28;20416;-67
2022/05/30 04:15:21;;;;;;;5.03;4.53;;;14.40;98.80;;;;;;5050777;28;21103;-67
2022/05/30 04:17:47;;;;;;;6.83;5.27;;;14.40;98.80;;;;;;5031950;28;20938;-67
2022/05/30 04:20:13;;;;;;;7.80;5.00;;;14.50;98.90;;;;;;5030775;28;20520;-68
2022/05/30 04:22:39;;;;;;;5.03;4.53;;;14.40;98.20;;;;;;5032218;28;20221;-67
2022/05/30 04:25:05;;;;;;;4.50;4.10;;;14.50;98.50;;;;;;5049398;28;20521;-67
2022/05/30 04:27:32;;;;;;;3.90;3.60;;;14.40;98.50;;;;;;5051485;28;21050;-67
2022/05/30 04:29:58;;;;;;;4.73;4.10;;;14.40;97.70;;;;;;5050807;28;20884;-68
2022/05/30 04:32:24;;;;;;;5.60;5.10;;;14.40;97.80;;;;;;5051467;28;20410;-67
2022/05/30 04:34:50;;;;;;;5.60;4.67;;;14.40;97.50;;;;;;5052018;28;20177;-66
2022/05/30 04:37:16;;;;;;;8.67;4.63;;;14.40;99.80;;;;;;5050924;28;20542;-67
2022/05/30 04:39:42;;;;;;;5.07;4.60;;;14.50;98.70;;;;;;5047452;28;20474;-67
2022/05/30 04:42:08;;;;;;;5.63;4.87;;;14.50;99.10;;;;;;5050651;28;20170;-67
2022/05/30 04:44:35;;;;;;;7.93;5.03;;;14.50;98.60;;;;;;5051775;28;20216;-67
2022/05/30 04:47:01;;;;;;;4.20;3.90;;;14.50;99.00;;;;;;5049566;28;20427;-67
2022/05/30 04:49:28;;;;;;;4.60;4.20;;;14.50;98.10;;;;;;5044619;28;20441;-67
2022/05/30 04:51:53;;;;;;;5.00;4.53;;;14.40;97.70;;;;;;5043411;28;20417;-67
2022/05/30 04:54:20;;;;;;;6.07;5.03;;;14.50;97.90;;;;;;5049707;28;20979;-67
2022/05/30 04:56:46;;;;;;;8.93;3.87;;;14.50;98.20;;;;;;5051644;28;20567;-67
2022/05/30 04:59:13;;;;;;;6.03;5.63;;;14.50;98.50;;;;;;5048838;28;20454;-67
2022/05/30 05:01:39;;;;;;;7.13;4.50;;;14.50;97.60;;;;;;5051454;28;20185;-67
2022/05/30 05:04:07;;;;;;;4.33;3.97;;;14.50;98.50;;;;;;5054351;28;20415;-67
2022/05/30 05:06:33;;;;;;;6.50;5.50;;;14.60;98.50;;;;;;5050308;28;20435;-66
2022/05/30 05:09:15;;;;;;;6.93;4.50;;;14.60;98.50;;;;;;5044180;28;20780;-67
2022/05/30 05:11:41;;;;;;;6.93;5.00;;;14.60;97.80;;;;;;5055544;28;20401;-70
2022/05/30 05:14:07;;;;;;;4.50;4.13;;;14.60;97.90;;;;;;5065562;28;20772;-67
2022/05/30 05:16:33;;;;;;;4.47;4.03;;;14.60;97.30;;;;;;5055154;28;20445;-67
2022/05/30 05:18:59;;;;;;;6.53;4.30;;;14.70;97.80;;;;;;5065474;28;20506;-73
2022/05/30 05:21:28;;;;;;;6.53;4.47;;;14.70;97.40;;;;;;5054629;28;20993;-67
2022/05/30 05:23:54;;;;;;;5.77;5.30;;;14.70;96.70;;;;;;5053879;28;20236;-67
2022/05/30 05:26:20;;;;;;;9.17;4.90;;;14.70;97.10;;;;;;5053962;28;21047;-67
2022/05/30 05:28:47;;;;;;;5.70;5.20;;;14.70;97.20;;;;;;5052216;28;20436;-65
2022/05/30 05:31:25;;;;;;;11.80;4.63;;;14.70;96.30;;;;;;5052710;28;20424;-67
2022/05/30 05:33:53;;;;;;;5.13;4.03;;;14.80;96.20;;;;;;5052131;28;20428;-67
2022/05/30 05:36:21;;;;;;;4.90;4.43;;;14.70;95.90;;;;;;5052798;28;20404;-68
2022/05/30 05:38:47;;;;;;;5.40;4.27;;;14.70;95.90;;;;;;5053871;28;20461;-67
2022/05/30 05:41:12;;;;;;;6.00;3.57;;;14.70;96.60;;;;;;5054030;28;20414;-67
2022/05/30 05:43:38;;;;;;;6.27;4.60;;;14.60;96.10;;;;;;5054681;28;20404;-67
2022/05/30 05:46:04;;;;;;;7.27;5.17;;;14.60;96.20;;;;;;5052485;28;20629;-68
2022/05/30 05:48:30;;;;;;;7.07;5.20;;;14.60;96.40;;;;;;5053279;28;20192;-67
2022/05/30 05:50:57;;;;;;;4.40;4.00;;;14.50;95.80;;;;;;5053023;28;20529;-67
2022/05/30 05:53:23;;;;;;;8.47;4.47;;;14.40;95.40;;;;;;5053418;28;20200;-67
2022/05/30 05:55:49;;;;;;;4.57;4.10;;;14.40;95.90;;;;;;5053612;28;20430;-65
2022/05/30 05:58:14;;;;;;;11.37;4.70;;;14.30;95.60;;;;;;5052346;28;20299;-65
2022/05/30 06:00:40;;;;;;;7.07;5.27;;;14.20;95.30;;;;;;5052552;28;20663;-64
2022/05/30 06:03:06;;;;;;;5.50;5.00;;;14.20;96.00;;;;;;5051373;28;20231;-65
2022/05/30 06:05:31;;;;;;;6.67;4.80;;;14.20;96.50;;;;;;5053566;28;20192;-65
2022/05/30 06:07:59;;;;;;;8.90;4.50;;;14.20;96.00;;;;;;5052831;28;20188;-65
2022/05/30 06:10:25;;;;;;;8.23;5.10;;;14.20;96.40;;;;;;5053424;28;20261;-66
2022/05/30 06:12:51;;;;;;;6.23;5.60;;;14.20;96.00;;;;;;5052146;28;20531;-65
2022/05/30 06:15:19;;;;;;;5.23;4.73;;;14.20;96.00;;;;;;5061810;28;20892;-66
2022/05/30 06:17:46;;;;;;;6.00;5.13;;;14.20;95.80;;;;;;5057305;28;20486;-67
2022/05/30 06:20:17;;;;;;;11.30;5.50;;;14.20;96.30;;;;;;5053305;28;20416;-65
2022/05/30 06:22:43;;;;;;;5.77;4.67;;;14.20;96.70;;;;;;5054248;28;20410;-65
2022/05/30 06:25:09;;;;;;;4.93;4.63;;;14.20;97.10;;;;;;5052280;28;20443;-65
2022/05/30 06:27:35;;;;;;;13.70;5.47;;;14.20;96.60;;;;;;5053983;28;20197;-65
2022/05/30 06:30:02;;;;;;;8.27;4.87;;;14.20;97.80;;;;;;5051156;28;20806;-66
2022/05/30 06:32:28;;;;;;;5.33;4.17;;;14.20;97.90;;;;;;5053830;28;20409;-65
2022/05/30 06:34:55;;;;;;;7.60;4.37;;;14.30;98.30;;;;;;5053318;28;20553;-65
2022/05/30 06:37:21;;;;;;;6.40;4.90;;;14.20;97.70;;;;;;5053094;28;20216;-65
2022/05/30 06:39:47;;;;;;;8.57;4.87;;;14.20;97.70;;;;;;5053747;28;20437;-65
2022/05/30 06:42:13;;;;;;;6.53;4.83;;;14.20;97.90;;;;;;5054139;28;20423;-65
2022/05/30 06:44:40;;;;;;;4.80;4.20;;;14.30;98.60;;;;;;5052549;28;20267;-65
2022/05/30 06:47:10;;;;;;;5.50;4.53;;;14.30;98.80;;;;;;5051553;28;20493;-67
2022/05/30 06:49:36;;;;;;;6.10;5.00;;;14.30;98.10;;;;;;5052556;28;20435;-67
2022/05/30 06:52:02;;;;;;;7.70;5.20;;;14.40;98.00;;;;;;5042522;28;20852;-68
2022/05/30 06:54:28;;;;;;;7.73;5.03;;;14.30;97.40;;;;;;5051531;28;20420;-67
2022/05/30 06:59:38;;;;;;;6.33;5.10;;;14.40;97.50;;;;;;5033517;28;20174;-67
2022/05/30 07:02:05;;;;;;;11.80;5.43;;;14.40;96.70;;;;;;5032753;28;20404;-68
2022/05/30 07:04:35;;;;;;;8.77;5.03;;;14.40;96.50;;;;;;5033108;28;20257;-67
2022/05/30 07:07:07;;;;;;;8.77;6.30;;;14.40;97.60;;;;;;5033211;28;20479;-67
2022/05/30 07:09:34;;;;;;;7.53;5.63;;;14.40;97.20;;;;;;5051244;28;20515;-65
2022/05/30 07:12:00;;;;;;;5.10;4.70;;;14.50;97.40;;;;;;5051665;28;20495;-66
2022/05/30 07:14:26;;;;;;;7.50;5.27;;;14.50;96.10;;;;;;5049239;28;20783;-67
2022/05/30 07:16:52;;;;;;;7.77;5.73;;;14.40;97.00;;;;;;5052157;28;20435;-65
2022/05/30 07:19:18;;;;;;;5.30;4.83;;;14.50;97.50;;;;;;5052698;28;20490;-65
2022/05/30 07:21:44;;;;;;;6.13;5.60;;;14.50;97.50;;;;;;5052645;28;20308;-65
2022/05/30 07:24:13;;;;;;;6.00;5.33;;;14.50;95.80;;;;;;5051864;28;20474;-65
2022/05/30 07:26:39;;;;;;;9.20;5.80;;;14.50;95.60;;;;;;5053198;28;20182;-65
2022/05/30 07:29:05;;;;;;;6.47;5.90;;;14.50;96.70;;;;;;5052506;28;20412;-71
2022/05/30 07:31:31;;;;;;;8.23;4.47;;;14.60;96.00;;;;;;5042791;28;20426;-65
2022/05/30 07:33:57;;;;;;;9.80;5.17;;;14.60;94.80;;;;;;5052345;28;20735;-65
2022/05/30 07:36:29;;;;;;;4.70;4.30;;;14.70;94.20;;;;;;5048210;28;20563;-65
2022/05/30 07:38:55;;;;;;;4.83;4.40;;;14.80;93.80;;;;;;5050703;28;20555;-65
2022/05/30 07:41:24;;;;;;;4.40;4.00;;;14.80;93.30;;;;;;5050565;28;20521;-65
2022/05/30 07:43:50;;;;;;;8.23;4.73;;;14.90;93.50;;;;;;5052349;28;20409;-65
2022/05/30 07:46:17;;;;;;;9.33;4.37;;;15.00;93.00;;;;;;5049367;28;21068;-65
2022/05/30 07:48:43;;;;;;;4.87;4.37;;;15.00;93.30;;;;;;5047931;28;20523;-66
2022/05/30 07:51:11;;;;;;;5.17;4.33;;;15.10;93.40;;;;;;5047465;28;20428;-65
2022/05/30 07:53:39;;;;;;;4.50;4.10;;;15.10;93.70;;;;;;5050520;28;20484;-65
2022/05/30 07:56:11;;;;;;;5.90;4.50;;;15.30;93.60;;;;;;5050476;28;21113;-65
2022/05/30 07:58:37;;;;;;;4.80;4.40;;;15.40;93.10;;;;;;5051755;28;20469;-65
2022/05/30 08:01:04;;;;;;;6.47;4.40;;;15.50;91.40;;;;;;5051323;28;20435;-65
2022/05/30 08:03:30;;;;;;;4.37;3.90;;;15.60;92.90;;;;;;5051757;28;20560;-65
2022/05/30 08:06:07;;;;;;;9.67;4.03;;;15.60;92.40;;;;;;5052527;28;20418;-65
2022/05/30 08:08:33;;;;;;;4.43;2.63;;;15.60;91.40;;;;;;5052013;28;21006;-65
2022/05/30 08:10:59;;;;;;;4.80;4.40;;;15.60;90.50;;;;;;5052443;28;20561;-65
2022/05/30 08:13:24;;;;;;;4.60;3.83;;;15.70;90.60;;;;;;5051674;28;20624;-65
2022/05/30 08:15:51;;;;;;;6.03;4.63;;;15.60;91.40;;;;;;5057263;28;20174;-65
2022/05/30 08:18:18;;;;;;;5.63;4.60;;;15.60;92.20;;;;;;5051674;28;20254;-65
2022/05/30 08:20:44;;;;;;;7.30;3.43;;;15.50;90.80;;;;;;5052078;28;20463;-65
2022/05/30 08:23:10;;;;;;;5.63;4.50;;;15.50;91.20;;;;;;5050648;28;20903;-66
2022/05/30 08:25:38;;;;;;;3.73;3.40;;;15.50;91.40;;;;;;5042927;28;20437;-66
2022/05/30 08:28:04;;;;;;;6.67;3.30;;;15.50;90.80;;;;;;5068599;28;20992;-65
2022/05/30 08:30:30;;;;;;;4.70;3.70;;;15.50;90.20;;;;;;5060658;28;20508;-66
2022/05/30 08:32:56;;;;;;;4.10;3.07;;;15.50;90.10;;;;;;5064805;28;20769;-65
2022/05/30 08:35:23;;;;;;;4.63;3.00;;;15.40;91.60;;;;;;5049937;28;20494;-65
2022/05/30 08:37:50;;;;;;;4.77;3.50;;;15.40;90.90;;;;;;5035588;28;20934;-65
2022/05/30 08:43:10;;;;;;;4.40;4.00;;;15.30;90.90;;;;;;5053152;28;20402;-66
2022/05/30 08:45:37;;;;;;;5.27;4.20;;;15.30;91.60;;;;;;5048901;28;20443;-66
2022/05/30 08:48:11;;;;;;;4.47;3.27;;;15.20;90.30;;;;;;5050083;28;20438;-65
2022/05/30 08:50:54;;;;;;;9.00;3.97;;;15.10;89.30;;;;;;5050492;28;20425;-66
2022/05/30 08:53:46;;;;;;;4.63;4.20;;;15.20;90.10;;;;;;5057134;28;20825;-66
2022/05/30 08:56:34;;;;;;;4.90;4.40;;;15.10;92.50;;;;;;5066465;28;20927;-66
2022/05/30 08:59:14;;;;;;;5.50;3.90;;;15.10;91.80;;;;;;5064910;28;20464;-69
2022/05/30 09:01:54;;;;;;;5.57;4.10;;;15.10;91.70;;;;;;5051641;28;20488;-65
2022/05/30 09:04:25;;;;;;;5.10;4.70;;;15.20;91.30;;;;;;5069123;28;20416;-66
2022/05/30 09:07:13;;;;;;;3.90;3.60;;;15.20;90.40;;;;;;5056190;28;20476;-66
2022/05/30 09:09:55;;;;;;;5.30;3.80;;;15.30;92.60;;;;;;5041879;28;20497;-65
2022/05/30 09:12:47;;;;;;;3.53;3.17;;;15.40;90.30;;;;;;5040487;28;20432;-66
2022/05/30 09:15:28;;;;;;;3.93;3.30;;;15.40;90.10;;;;;;5053699;28;20778;-66
2022/05/30 09:18:07;;;;;;;3.73;3.30;;;15.50;90.20;;;;;;5055177;28;20520;-66
2022/05/30 09:20:34;;;;;;;3.90;3.50;;;15.60;89.30;;;;;;5054342;28;20467;-65
2022/05/30 09:23:04;;;;;;;6.80;3.57;;;15.70;86.50;;;;;;5054924;28;20423;-65
2022/05/30 09:25:57;;;;;;;3.97;3.17;;;15.80;84.00;;;;;;5053463;28;20673;-66
2022/05/30 09:28:30;;;;;;;3.63;3.33;;;15.90;83.80;;;;;;5054386;28;20414;-66
2022/05/30 09:31:17;;;;;;;5.27;3.10;;;16.00;82.30;;;;;;5055378;28;20418;-65
2022/05/30 09:33:46;;;;;;;5.53;3.20;;;16.10;85.50;;;;;;5055277;28;20495;-65
2022/05/30 09:36:19;;;;;;;3.43;3.17;;;16.10;87.40;;;;;;5054189;28;20861;-66
2022/05/30 09:38:55;;;;;;;3.97;2.50;;;16.10;85.40;;;;;;5054999;28;20459;-66
2022/05/30 09:41:38;;;;;;;3.60;3.30;;;16.20;80.00;;;;;;5054481;28;20435;-66
2022/05/30 09:44:19;;;;;;;3.60;3.30;;;16.20;81.70;;;;;;5054912;28;20495;-66
2022/05/30 09:47:02;;;;;;;3.40;3.20;;;16.20;83.40;;;;;;5054830;28;20502;-65
2022/05/30 09:49:38;;;;;;;3.50;3.30;;;16.20;85.30;;;;;;5051587;28;20867;-65
2022/05/30 09:52:24;;;;;;;6.00;5.47;;;16.20;85.40;;;;;;5053637;28;20461;-66
2022/05/30 09:54:51;;;;;;;4.23;2.90;;;16.20;86.00;;;;;;5055064;28;20414;-65
2022/05/30 09:57:20;;;;;;;6.57;6.00;;;16.20;85.10;;;;;;5053931;28;20513;-66
2022/05/30 09:59:50;;;;;;;4.03;3.83;;;16.20;84.20;;;;;;5054336;28;20417;-66
2022/05/30 10:02:24;;;;;;;4.63;4.43;;;16.20;83.40;;;;;;5053973;28;20423;-66
2022/05/30 10:05:06;;;;;;;5.07;4.73;;;16.20;82.00;;;;;;5053255;28;20469;-66
2022/05/30 10:07:48;;;;;;;4.03;3.03;;;16.20;83.30;;;;;;5053846;28;20906;-66
2022/05/30 10:10:40;;;;;;;4.20;3.77;;;16.20;82.40;;;;;;5053864;28;20453;-66
2022/05/30 10:13:10;;;;;;;5.50;5.00;;;16.10;81.60;;;;;;5053670;28;20515;-66
2022/05/30 10:15:39;;;;;;;5.57;5.20;;;16.10;83.20;;;;;;5053570;28;20431;-66
2022/05/30 10:18:13;;;;;;;4.50;4.20;;;16.20;83.40;;;;;;5054174;28;20547;-66
2022/05/30 10:20:39;;;;;;;6.20;5.73;;;16.30;85.00;;;;;;5053861;28;20831;-66
2022/05/30 10:28:14;;;;;;;4.00;3.80;;;16.40;83.30;;;;;;5053706;28;20710;-66
2022/05/30 10:29:50;;;;;;;4.03;3.73;;;16.60;83.90;;;;;;5053083;28;21037;-66
2022/05/30 10:32:46;;;;;;;4.17;3.97;;;16.70;82.80;;;;;;5053656;28;20482;-66
2022/05/30 10:35:49;;;;;;;4.97;4.60;;;16.80;82.40;;;;;;5053737;28;20437;-66
2022/05/30 10:38:26;;;;;;;4.43;4.17;;;17.00;84.60;;;;;;5053224;28;20844;-72
2022/05/30 10:41:09;;;;;;;5.07;4.70;;;17.10;83.00;;;;;;5052472;28;20432;-66
2022/05/30 10:43:46;;;;;;;4.90;4.50;;;17.20;77.90;;;;;;5053098;28;20684;-66
2022/05/30 10:46:31;;;;;;;4.67;4.17;;;17.20;79.00;;;;;;5053523;28;20487;-66
2022/05/30 10:49:04;;;;;;;5.47;5.10;;;17.10;79.10;;;;;;5053250;28;20416;-65
2022/05/30 10:51:39;;;;;;;7.00;6.10;;;17.10;81.80;;;;;;5052142;28;20416;-66
2022/05/30 10:54:15;;;;;;;4.33;4.00;;;17.00;78.80;;;;;;5053239;28;20411;-65
2022/05/30 10:56:48;;;;;;;4.43;4.13;;;17.00;78.60;;;;;;5053213;28;20423;-66
2022/05/30 10:59:35;;;;;;;4.73;4.33;;;17.00;80.10;;;;;;5053115;28;20458;-65
2022/05/30 11:02:12;;;;;;;7.70;4.67;;;16.90;81.00;;;;;;5053504;28;20396;-65
2022/05/30 11:04:57;;;;;;;4.83;4.53;;;16.80;77.50;;;;;;5052987;28;20731;-66
2022/05/30 11:07:44;;;;;;;4.93;3.90;;;16.70;78.30;;;;;;5052237;28;20428;-66
2022/05/30 11:10:25;;;;;;;4.67;4.17;;;16.60;78.30;;;;;;5051250;28;20416;-66
2022/05/30 11:13:33;;;;;;;4.30;4.00;;;16.50;78.60;;;;;;5052626;28;20766;-65
2022/05/30 11:16:22;;;;;;;5.50;4.97;;;16.50;80.20;;;;;;5052902;28;20408;-66
2022/05/30 11:18:53;;;;;;;5.57;4.53;;;16.50;81.40;;;;;;5051829;28;20832;-66
2022/05/30 11:21:39;;;;;;;5.57;5.00;;;16.50;77.90;;;;;;5052129;28;20474;-67
2022/05/30 11:24:06;;;;;;;5.50;5.20;;;16.50;79.50;;;;;;5052985;28;20416;-65
2022/05/30 11:26:46;;;;;;;6.43;5.93;;;16.50;80.20;;;;;;5052351;28;20495;-65
2022/05/30 11:29:20;;;;;;;9.60;7.27;;;16.60;81.00;;;;;;5053005;28;20408;-65
2022/05/30 11:32:09;;;;;;;5.13;4.63;;;16.60;80.60;;;;;;5052944;28;20432;-66
2022/05/30 11:34:44;;;;;;;4.63;4.37;;;16.60;78.60;;;;;;5052230;28;20968;-66
2022/05/30 11:37:25;;;;;;;5.40;4.90;;;16.60;81.10;;;;;;5052564;28;20478;-66
2022/05/30 11:39:57;;;;;;;4.60;4.30;;;16.70;81.40;;;;;;5052832;28;20411;-65
2022/05/30 11:42:50;;;;;;;4.93;4.53;;;16.80;81.90;;;;;;5052231;28;20753;-66
2022/05/30 11:45:24;;;;;;;5.37;4.77;;;16.80;76.10;;;;;;5052667;28;20407;-66
2022/05/30 11:48:05;;;;;;;4.73;4.33;;;16.80;75.10;;;;;;5052767;28;20513;-66
2022/05/30 11:50:37;;;;;;;6.83;6.33;;;16.90;75.10;;;;;;5052399;28;20440;-65
2022/05/30 11:53:30;;;;;;;4.70;4.33;;;16.90;75.30;;;;;;5052521;28;20427;-66
2022/05/30 11:56:08;;;;;;;6.60;4.80;;;17.00;76.10;;;;;;5052494;28;20404;-65
2022/05/30 11:58:53;;;;;;;5.40;4.90;;;17.10;75.00;;;;;;5051942;28;20498;-66
2022/05/30 12:01:23;;;;;;;5.60;5.20;;;17.20;80.50;;;;;;5052349;28;20441;-66
2022/05/30 12:04:19;;;;;;;5.50;4.97;;;17.50;78.60;;;;;;5052868;28;20466;-66
2022/05/30 12:07:06;;;;;;;4.60;4.30;;;17.70;79.70;;;;;;5052437;28;20412;-66
2022/05/30 12:10:06;;;;;;;4.50;4.20;;;17.90;77.50;;;;;;5050976;28;20403;-66
2022/05/30 12:12:44;;;;;;;4.20;4.00;;;18.20;74.90;;;;;;5054349;28;20404;-66
2022/05/30 12:15:20;;;;;;;6.20;5.90;;;18.30;73.30;;;;;;5055417;28;20868;-66
2022/05/30 12:24:19;;;;;;;5.30;4.90;;;18.30;73.30;;;;;;5056360;28;20423;-66
2022/05/30 12:26:54;;;;;;;5.40;5.00;;;18.30;70.20;;;;;;5055743;28;20407;-66
2022/05/30 12:29:38;;;;;;;5.33;4.93;;;18.40;73.10;;;;;;5056391;28;20412;-66
2022/05/30 12:32:10;;;;;;;5.23;4.90;;;18.30;72.70;;;;;;5056251;28;20495;-66
2022/05/30 12:35:03;;;;;;;4.93;4.60;;;18.30;73.60;;;;;;5053983;28;20904;-66
2022/05/30 12:37:44;;;;;;;8.10;6.50;;;18.30;70.00;;;;;;5055431;28;20466;-66
2022/05/30 12:40:22;;;;;;;6.20;5.70;;;18.30;73.90;;;;;;5054895;28;20416;-66
2022/05/30 12:42:56;;;;;;;4.40;4.10;;;18.50;73.40;;;;;;5056071;28;20447;-66
2022/05/30 12:45:34;;;;;;;4.40;4.00;;;18.60;71.70;;;;;;5054809;28;20799;-66
2022/05/30 12:48:10;;;;;;;6.83;6.53;;;18.70;70.20;;;;;;5056032;28;20419;-66
2022/05/30 12:50:56;;;;;;;5.63;5.37;;;18.70;71.80;;;;;;5055645;28;20499;-66
2022/05/30 12:53:43;;;;;;;4.40;4.00;;;18.60;67.90;;;;;;5055641;28;20753;-66
2022/05/30 12:56:09;;;;;;;5.03;4.63;;;18.50;69.70;;;;;;5055617;28;20766;-66
2022/05/30 12:59:08;;;;;;;5.13;4.70;;;18.50;72.10;;;;;;5055011;28;20505;-66
2022/05/30 13:01:42;;;;;;;5.13;4.73;;;18.30;72.10;;;;;;5051034;28;20194;-65
2022/05/30 13:04:26;;;;;;;4.50;4.10;;;18.20;71.10;;;;;;5055606;28;20407;-66
2022/05/30 13:06:58;;;;;;;4.97;4.67;;;18.10;72.20;;;;;;5055698;28;20410;-66
2022/05/30 13:09:37;;;;;;;5.43;4.93;;;18.00;71.90;;;;;;5054005;28;20938;-73
2022/05/30 13:12:25;;;;;;;5.20;4.80;;;18.00;72.20;;;;;;5055529;28;20407;-66
2022/05/30 13:14:59;;;;;;;5.10;4.70;;;17.90;69.80;;;;;;5055632;28;20951;-66
2022/05/30 13:17:51;;;;;;;4.70;4.50;;;17.90;69.60;;;;;;5054632;28;20510;-66
2022/05/30 13:20:21;;;;;;;5.50;5.20;;;17.80;70.60;;;;;;5055166;28;20869;-66
2022/05/30 13:22:52;;;;;;;6.90;5.40;;;17.70;70.10;;;;;;5054348;28;20397;-66
2022/05/30 13:25:22;;;;;;;8.03;5.63;;;17.70;69.50;;;;;;5053810;28;20424;-66
2022/05/30 13:27:49;;;;;;;7.50;5.87;;;17.70;71.30;;;;;;5054811;28;20420;-65